createdAt,value
2019-02-27T00:01:26.039Z,6.47
2019-02-27T00:03:53.883Z,9.93
2019-02-27T00:06:21.719Z,9.75
2019-02-27T00:08:49.700Z,9.70
2019-02-27T00:11:17.564Z,10.80
2019-02-27T00:13:45.428Z,9.70
2019-02-27T00:16:13.408Z,8.53
2019-02-27T00:18:41.345Z,9.10
2019-02-27T00:21:11.029Z,8.70
2019-02-27T00:23:38.727Z,7.92
2019-02-27T00:26:08.775Z,8.60
2019-02-27T00:28:36.137Z,8.33
2019-02-27T00:31:04.002Z,8.60
2019-02-27T00:33:31.852Z,8.00
2019-02-27T00:35:59.764Z,7.87
2019-02-27T00:38:27.707Z,8.20
2019-02-27T00:40:55.584Z,7.60
2019-02-27T00:43:23.407Z,7.22
2019-02-27T00:45:51.280Z,7.42
2019-02-27T00:48:19.177Z,6.75
2019-02-27T00:50:47.049Z,6.58
2019-02-27T00:53:14.906Z,6.70
2019-02-27T00:55:42.759Z,6.45
2019-02-27T00:58:10.995Z,6.17
2019-02-27T01:00:39.347Z,6.53
2019-02-27T01:03:07.839Z,7.22
2019-02-27T01:05:35.676Z,6.62
2019-02-27T01:08:03.531Z,6.62
2019-02-27T01:10:31.403Z,5.92
2019-02-27T01:12:59.234Z,5.80
2019-02-27T01:15:27.114Z,6.42
2019-02-27T01:17:57.307Z,6.30
2019-02-27T01:20:24.509Z,6.25
2019-02-27T01:22:52.368Z,5.80
2019-02-27T01:25:22.866Z,6.42
2019-02-27T01:27:49.783Z,5.87
2019-02-27T01:30:17.636Z,5.42
2019-02-27T01:32:45.509Z,6.03
2019-02-27T01:35:17.810Z,5.35
2019-02-27T01:37:42.987Z,5.58
2019-02-27T01:40:11.505Z,5.33
2019-02-27T01:42:39.333Z,5.20
2019-02-27T01:45:08.251Z,5.78
2019-02-27T01:47:36.562Z,5.30
2019-02-27T01:50:19.954Z,5.40
2019-02-27T01:52:48.082Z,5.67
2019-02-27T01:55:16.091Z,5.72
2019-02-27T01:57:44.048Z,5.47
2019-02-27T02:00:11.973Z,5.30
2019-02-27T02:02:40.572Z,5.25
2019-02-27T02:05:08.392Z,5.70
2019-02-27T02:07:39.961Z,5.40
2019-02-27T02:10:05.887Z,5.20
2019-02-27T02:12:33.743Z,5.25
2019-02-27T02:15:18.412Z,5.33
2019-02-27T02:18:00.310Z,5.00
2019-02-27T02:20:35.268Z,4.80
2019-02-27T02:23:14.167Z,5.03
2019-02-27T02:25:49.340Z,4.72
2019-02-27T02:28:42.713Z,4.72
2019-02-27T02:31:29.826Z,4.87
2019-02-27T02:34:32.052Z,4.75
2019-02-27T02:37:25.118Z,4.62
2019-02-27T02:39:58.861Z,4.70
2019-02-27T02:42:59.216Z,5.05
2019-02-27T02:45:46.609Z,4.47
2019-02-27T02:48:18.460Z,4.20
2019-02-27T02:51:04.030Z,4.87
2019-02-27T02:53:49.549Z,4.85
2019-02-27T02:56:39.443Z,4.95
2019-02-27T02:59:26.049Z,4.42
2019-02-27T03:02:02.588Z,4.80
2019-02-27T03:04:49.757Z,4.70
2019-02-27T03:07:35.268Z,4.65
2019-02-27T03:10:09.037Z,5.00
2019-02-27T03:12:53.538Z,4.17
2019-02-27T03:15:29.527Z,4.45
2019-02-27T03:18:02.069Z,4.20
2019-02-27T03:20:34.812Z,4.20
2019-02-27T03:23:18.655Z,4.60
2019-02-27T03:25:51.500Z,4.40
2019-02-27T03:28:33.144Z,4.30
2019-02-27T03:31:29.312Z,4.47
2019-02-27T03:34:31.325Z,4.30
2019-02-27T03:37:04.384Z,4.08
2019-02-27T03:39:57.294Z,4.47
2019-02-27T03:42:47.173Z,4.70
2019-02-27T03:45:31.105Z,4.25
2019-02-27T03:48:11.282Z,4.30
2019-02-27T03:50:58.688Z,4.45
2019-02-27T03:53:31.858Z,4.05
2019-02-27T03:56:24.941Z,4.20
2019-02-27T03:59:20.823Z,4.40
2019-02-27T04:02:05.875Z,4.28
2019-02-27T04:04:41.896Z,3.75
2019-02-27T04:07:31.740Z,3.58
2019-02-27T04:09:58.499Z,4.20
2019-02-27T04:12:26.355Z,3.90
2019-02-27T04:14:54.220Z,3.60
2019-02-27T04:17:27.340Z,3.60
2019-02-27T04:19:55.281Z,3.58
2019-02-27T04:22:23.133Z,3.75
2019-02-27T04:24:56.382Z,3.72
2019-02-27T04:27:21.333Z,3.80
2019-02-27T04:29:49.358Z,3.85
2019-02-27T04:32:17.700Z,3.95
2019-02-27T04:34:45.567Z,4.28
2019-02-27T04:37:13.452Z,3.90
2019-02-27T04:39:41.371Z,3.45
2019-02-27T04:42:09.356Z,3.58
2019-02-27T04:44:38.870Z,3.80
2019-02-27T04:47:06.731Z,3.70
2019-02-27T04:49:34.797Z,3.50
2019-02-27T04:52:04.216Z,3.77
2019-02-27T04:54:32.103Z,3.80
2019-02-27T04:57:00.043Z,3.50
2019-02-27T04:59:28.042Z,4.05
2019-02-27T05:01:55.949Z,3.42
2019-02-27T05:04:23.801Z,3.87
2019-02-27T05:06:51.650Z,3.72
2019-02-27T05:09:19.581Z,3.50
2019-02-27T05:11:48.254Z,3.67
2019-02-27T05:14:16.210Z,3.80
2019-02-27T05:16:47.023Z,3.85
2019-02-27T05:19:15.211Z,3.42
2019-02-27T05:21:43.182Z,3.30
2019-02-27T05:24:11.120Z,3.55
2019-02-27T05:26:40.347Z,3.72
2019-02-27T05:29:08.671Z,3.62
2019-02-27T05:31:36.533Z,3.92
2019-02-27T05:34:04.396Z,3.83
2019-02-27T05:36:32.379Z,3.75
2019-02-27T05:39:00.279Z,3.47
2019-02-27T05:41:28.164Z,3.72
2019-02-27T05:43:55.985Z,3.70
2019-02-27T05:46:23.969Z,3.33
2019-02-27T05:48:53.356Z,3.83
2019-02-27T05:51:21.426Z,4.90
2019-02-27T05:53:49.288Z,4.80
2019-02-27T05:56:18.520Z,4.62
2019-02-27T05:58:46.848Z,4.58
2019-02-27T06:01:14.735Z,4.33
2019-02-27T06:03:53.116Z,4.40
2019-02-27T06:06:20.941Z,4.58
2019-02-27T06:08:48.997Z,4.67
2019-02-27T06:11:16.861Z,4.35
2019-02-27T06:13:47.542Z,4.70
2019-02-27T06:16:15.353Z,4.40
2019-02-27T06:18:43.468Z,4.60
2019-02-27T06:21:13.357Z,4.53
2019-02-27T06:23:40.956Z,5.10
2019-02-27T06:26:09.008Z,4.55
2019-02-27T06:28:36.975Z,4.45
2019-02-27T06:31:04.865Z,4.80
2019-02-27T06:33:32.976Z,4.37
2019-02-27T06:36:01.481Z,5.58
2019-02-27T06:38:29.710Z,5.22
2019-02-27T06:40:59.335Z,4.87
2019-02-27T06:43:27.866Z,4.65
2019-02-27T06:45:55.832Z,5.00
2019-02-27T06:48:23.849Z,4.95
2019-02-27T06:50:51.808Z,5.12
2019-02-27T06:53:19.843Z,4.70
2019-02-27T06:55:47.758Z,5.10
2019-02-27T06:58:15.884Z,4.97
2019-02-27T07:00:44.641Z,4.55
2019-02-27T07:03:12.611Z,4.70
2019-02-27T07:05:40.813Z,4.47
2019-02-27T07:08:08.854Z,4.80
2019-02-27T07:10:36.934Z,4.53
2019-02-27T07:13:04.901Z,4.20
2019-02-27T07:15:32.781Z,5.00
2019-02-27T07:18:03.478Z,5.35
2019-02-27T07:20:30.916Z,5.70
2019-02-27T07:22:59.148Z,5.20
2019-02-27T07:25:30.206Z,4.92
2019-02-27T07:28:00.098Z,5.20
2019-02-27T07:30:28.028Z,6.22
2019-02-27T07:32:56.225Z,5.62
2019-02-27T07:35:26.331Z,5.28
2019-02-27T07:37:53.733Z,6.75
2019-02-27T07:40:21.769Z,7.65
2019-02-27T07:42:49.719Z,8.68
2019-02-27T07:45:17.675Z,10.43
2019-02-27T07:47:45.576Z,8.53
2019-02-27T07:50:14.139Z,8.33
2019-02-27T07:52:41.974Z,7.28
2019-02-27T07:55:21.150Z,7.92
2019-02-27T07:57:40.087Z,7.75
2019-02-27T08:00:09.397Z,6.75
2019-02-27T08:02:37.247Z,6.92
2019-02-27T08:05:05.402Z,6.55
2019-02-27T08:07:33.324Z,7.12
2019-02-27T08:10:04.603Z,6.58
2019-02-27T08:12:30.905Z,6.65
2019-02-27T08:14:59.913Z,5.80
2019-02-27T08:17:29.264Z,6.08
2019-02-27T08:19:57.334Z,6.45
2019-02-27T08:22:26.073Z,4.83
2019-02-27T08:24:54.256Z,5.35
2019-02-27T08:27:22.639Z,6.90
2019-02-27T08:29:52.427Z,5.85
2019-02-27T08:32:20.262Z,5.25
2019-02-27T08:34:48.232Z,4.78
2019-02-27T08:37:16.043Z,4.70
2019-02-27T08:39:44.553Z,5.33
2019-02-27T08:42:12.411Z,4.92
2019-02-27T08:44:43.003Z,5.42
2019-02-27T08:47:10.327Z,5.83
2019-02-27T08:49:38.773Z,5.47
2019-02-27T08:52:08.445Z,5.35
2019-02-27T08:54:36.199Z,5.40
2019-02-27T08:57:04.140Z,5.70
2019-02-27T08:59:32.478Z,5.67
2019-02-27T09:02:01.185Z,5.90
2019-02-27T09:04:32.504Z,5.70
2019-02-27T09:07:02.696Z,5.92
2019-02-27T09:09:30.578Z,5.87
2019-02-27T09:11:58.462Z,6.08
2019-02-27T09:14:26.416Z,5.92
2019-02-27T09:16:54.392Z,6.53
2019-02-27T09:19:22.302Z,6.12
2019-02-27T09:21:50.211Z,7.37
2019-02-27T09:24:18.089Z,6.70
2019-02-27T09:26:45.981Z,6.67
2019-02-27T09:29:18.386Z,6.85
2019-02-27T09:31:50.475Z,7.78
2019-02-27T09:34:13.185Z,6.55
2019-02-27T09:36:43.290Z,7.03
2019-02-27T09:39:10.558Z,6.72
2019-02-27T09:41:38.425Z,6.08
2019-02-27T09:44:06.311Z,6.87
2019-02-27T09:46:34.176Z,6.55
2019-02-27T09:49:02.119Z,20.48
2019-02-27T09:51:29.963Z,14.45
2019-02-27T09:53:58.173Z,13.30
2019-02-27T09:56:29.275Z,12.30
2019-02-27T09:58:55.832Z,12.43
2019-02-27T10:01:23.691Z,12.05
2019-02-27T10:03:51.996Z,12.07
2019-02-27T10:06:21.122Z,13.25
2019-02-27T10:08:49.148Z,11.45
2019-02-27T10:11:19.922Z,14.35
2019-02-27T10:13:46.782Z,13.40
2019-02-27T10:16:17.160Z,13.65
2019-02-27T10:18:45.219Z,24.35
2019-02-27T10:21:13.107Z,17.27
2019-02-27T10:23:46.767Z,18.57
2019-02-27T10:26:16.675Z,16.45
2019-02-27T10:28:44.264Z,15.53
2019-02-27T10:31:12.694Z,14.87
2019-02-27T10:33:42.825Z,12.90
2019-02-27T10:36:10.772Z,13.93
2019-02-27T10:38:40.382Z,13.08
2019-02-27T10:41:08.175Z,12.68
2019-02-27T10:43:36.106Z,12.13
2019-02-27T10:46:03.889Z,12.28
2019-02-27T10:48:31.793Z,11.33
2019-02-27T10:51:00.216Z,11.45
2019-02-27T10:53:28.179Z,10.82
2019-02-27T10:55:56.186Z,10.65
2019-02-27T10:58:24.743Z,10.72
2019-02-27T11:00:52.660Z,11.03
2019-02-27T11:03:23.641Z,10.43
2019-02-27T11:05:54.151Z,9.80
2019-02-27T11:08:19.632Z,9.30
2019-02-27T11:10:47.491Z,9.58
2019-02-27T11:13:15.399Z,10.28
2019-02-27T11:15:44.695Z,8.73
2019-02-27T11:18:12.832Z,8.50
2019-02-27T11:20:40.772Z,8.33
2019-02-27T11:23:08.693Z,8.68
2019-02-27T11:25:36.523Z,7.95
2019-02-27T11:28:04.505Z,8.40
2019-02-27T11:30:35.675Z,8.83
2019-02-27T11:33:02.521Z,8.63
2019-02-27T11:35:30.370Z,7.90
2019-02-27T11:37:58.246Z,7.62
2019-02-27T11:40:26.140Z,7.28
2019-02-27T11:42:53.981Z,7.40
2019-02-27T11:45:24.652Z,7.20
2019-02-27T11:47:51.377Z,7.00
2019-02-27T11:50:19.257Z,7.20
2019-02-27T11:52:49.144Z,6.70
2019-02-27T11:55:16.740Z,7.20
2019-02-27T11:57:44.614Z,6.62
2019-02-27T12:00:13.888Z,6.40
2019-02-27T12:02:41.948Z,6.92
2019-02-27T12:05:10.623Z,7.12
2019-02-27T12:07:38.626Z,7.25
2019-02-27T12:10:08.925Z,6.55
2019-02-27T12:12:36.778Z,14.33
2019-02-27T12:15:06.728Z,20.23
2019-02-27T12:17:34.400Z,22.13
2019-02-27T12:20:02.285Z,24.57
2019-02-27T12:22:30.151Z,25.23
2019-02-27T12:24:58.369Z,23.10
2019-02-27T12:27:47.854Z,20.88
2019-02-27T12:29:55.780Z,23.70
2019-02-27T12:32:23.616Z,24.07
2019-02-27T12:34:51.527Z,24.98
2019-02-27T12:37:28.227Z,23.67
2019-02-27T12:39:49.636Z,23.18
2019-02-27T12:42:18.134Z,22.55
2019-02-27T12:44:46.126Z,21.45
2019-02-27T12:47:13.987Z,21.75
2019-02-27T12:49:41.968Z,20.82
2019-02-27T12:52:12.097Z,20.05
2019-02-27T12:54:39.403Z,20.10
2019-02-27T12:57:07.269Z,19.75
2019-02-27T12:59:35.224Z,19.82
2019-02-27T13:02:08.487Z,20.23
2019-02-27T13:04:36.199Z,20.30
2019-02-27T13:07:04.223Z,18.73
2019-02-27T13:09:32.192Z,20.10
2019-02-27T13:12:00.066Z,19.12
2019-02-27T13:14:32.917Z,19.98
2019-02-27T13:16:59.829Z,17.10
2019-02-27T13:19:27.816Z,19.90
2019-02-27T13:21:57.534Z,24.45
2019-02-27T13:24:27.714Z,23.42
2019-02-27T13:26:55.852Z,23.40
2019-02-27T13:29:26.695Z,22.22
2019-02-27T13:31:56.465Z,21.87
2019-02-27T13:34:24.154Z,22.93
2019-02-27T13:36:52.129Z,22.62
2019-02-27T13:39:20.478Z,21.82
2019-02-27T13:41:48.536Z,21.55
2019-02-27T13:44:18.060Z,22.07
2019-02-27T13:46:45.929Z,21.07
2019-02-27T13:49:14.545Z,22.73
2019-02-27T13:51:42.491Z,21.55
2019-02-27T13:54:10.330Z,21.35
2019-02-27T13:56:38.245Z,21.35
2019-02-27T13:59:07.426Z,20.88
2019-02-27T14:01:37.507Z,20.65
2019-02-27T14:04:05.393Z,20.80
2019-02-27T14:06:33.654Z,21.48
2019-02-27T14:09:04.489Z,21.20
2019-02-27T14:11:31.919Z,22.05
2019-02-27T14:14:00.626Z,21.90
2019-02-27T14:16:28.589Z,20.92
2019-02-27T14:18:56.757Z,21.27
2019-02-27T14:21:24.793Z,20.95
2019-02-27T14:23:52.699Z,20.97
2019-02-27T14:26:20.753Z,21.37
2019-02-27T14:28:48.820Z,20.70
2019-02-27T14:31:17.357Z,21.33
2019-02-27T14:33:45.908Z,20.48
2019-02-27T14:36:13.826Z,18.75
2019-02-27T14:38:41.839Z,17.00
2019-02-27T14:41:11.160Z,16.65
2019-02-27T14:43:39.422Z,18.25
2019-02-27T14:46:07.322Z,19.70
2019-02-27T14:48:35.403Z,20.25
2019-02-27T14:51:07.411Z,20.32
2019-02-27T14:53:33.140Z,19.92
2019-02-27T14:56:01.031Z,20.40
2019-02-27T14:58:29.043Z,19.92
2019-02-27T15:00:56.992Z,20.23
2019-02-27T15:03:29.252Z,20.82
2019-02-27T15:05:54.479Z,20.50
2019-02-27T15:08:25.200Z,19.82
2019-02-27T15:10:55.173Z,20.82
2019-02-27T15:13:28.091Z,20.10
2019-02-27T15:18:28.729Z,19.25
2019-02-27T15:20:57.511Z,21.00
2019-02-27T15:23:28.366Z,19.15
2019-02-27T15:25:56.616Z,20.50
2019-02-27T15:28:24.708Z,17.62
2019-02-27T15:30:53.105Z,15.60
2019-02-27T15:33:21.022Z,15.10
2019-02-27T15:35:49.159Z,14.10
2019-02-27T15:38:19.257Z,14.35
2019-02-27T15:40:47.378Z,12.85
2019-02-27T15:43:17.359Z,12.68
2019-02-27T15:45:48.049Z,11.63
2019-02-27T15:48:14.547Z,12.05
2019-02-27T15:50:42.399Z,11.03
2019-02-27T15:53:14.545Z,10.82
2019-02-27T15:55:39.968Z,9.95
2019-02-27T15:58:08.099Z,10.10
2019-02-27T16:00:36.209Z,10.40
2019-02-27T16:03:04.163Z,9.15
2019-02-27T16:05:32.053Z,8.65
2019-02-27T16:07:59.966Z,8.43
2019-02-27T16:10:28.877Z,8.80
2019-02-27T16:13:00.015Z,8.35
2019-02-27T16:15:26.323Z,8.05
2019-02-27T16:17:54.192Z,7.30
2019-02-27T16:20:22.215Z,6.95
2019-02-27T16:22:50.483Z,7.62
2019-02-27T16:25:19.998Z,7.65
2019-02-27T16:27:48.144Z,6.70
2019-02-27T16:30:17.480Z,6.70
2019-02-27T16:32:48.459Z,7.97
2019-02-27T16:35:15.382Z,7.03
2019-02-27T16:37:43.890Z,6.85
2019-02-27T16:40:12.097Z,7.05
2019-02-27T16:42:40.226Z,5.95
2019-02-27T16:45:13.456Z,7.15
2019-02-27T16:47:41.498Z,6.22
2019-02-27T16:50:11.045Z,7.42
2019-02-27T16:52:39.194Z,5.87
2019-02-27T16:55:09.065Z,6.55
2019-02-27T16:57:36.961Z,6.55
2019-02-27T17:00:05.361Z,14.68
2019-02-27T17:02:35.528Z,13.62
2019-02-27T17:05:05.706Z,11.38
2019-02-27T17:07:32.810Z,10.10
2019-02-27T17:10:00.679Z,9.55
2019-02-27T17:12:28.791Z,9.15
2019-02-27T17:14:58.773Z,10.55
2019-02-27T17:17:26.608Z,12.13
2019-02-27T17:20:00.728Z,11.63
2019-02-27T17:22:32.656Z,12.78
2019-02-27T17:24:59.319Z,12.45
2019-02-27T17:27:27.303Z,20.72
2019-02-27T17:29:59.783Z,34.63
2019-02-27T17:32:27.479Z,36.75
2019-02-27T17:34:54.448Z,25.80
2019-02-27T17:37:22.330Z,30.15
2019-02-27T17:39:50.301Z,104.53
2019-02-27T17:42:18.557Z,135.28
2019-02-27T17:44:47.129Z,128.02
2019-02-27T17:47:15.032Z,137.40
2019-02-27T17:49:42.964Z,122.17
2019-02-27T17:52:11.561Z,135.97
2019-02-27T17:54:39.556Z,121.50
2019-02-27T17:57:07.465Z,117.60
2019-02-27T17:59:35.442Z,126.02
2019-02-27T18:02:03.355Z,119.72
2019-02-27T18:04:31.512Z,120.55
2019-02-27T18:07:00.643Z,114.15
2019-02-27T18:09:28.649Z,108.57
2019-02-27T18:11:56.561Z,105.52
2019-02-27T18:14:25.071Z,100.12
2019-02-27T18:16:52.919Z,96.28
2019-02-27T18:19:21.078Z,94.50
2019-02-27T18:21:49.052Z,90.25
2019-02-27T18:24:20.351Z,92.15
2019-02-27T18:26:51.140Z,78.15
2019-02-27T18:29:18.009Z,72.22
2019-02-27T18:31:45.914Z,72.47
2019-02-27T18:34:13.798Z,67.62
2019-02-27T18:36:43.126Z,69.27
2019-02-27T18:39:11.242Z,67.17
2019-02-27T18:41:39.771Z,66.35
2019-02-27T18:44:08.163Z,61.65
2019-02-27T18:46:36.798Z,59.83
2019-02-27T18:49:04.719Z,59.80
2019-02-27T18:51:33.222Z,55.52
2019-02-27T18:54:02.366Z,54.90
2019-02-27T18:56:30.321Z,52.67
2019-02-27T18:58:58.273Z,48.68
2019-02-27T19:01:26.352Z,48.55
2019-02-27T19:03:54.346Z,47.73
2019-02-27T19:06:22.445Z,45.98
2019-02-27T19:08:51.577Z,43.50
2019-02-27T19:11:22.463Z,44.25
2019-02-27T19:13:50.486Z,41.10
2019-02-27T19:16:20.720Z,38.73
2019-02-27T19:18:51.948Z,36.95
2019-02-27T19:21:19.836Z,36.65
2019-02-27T19:23:49.591Z,35.98
2019-02-27T19:26:17.371Z,35.13
2019-02-27T19:28:45.324Z,34.92
2019-02-27T19:31:16.406Z,33.65
2019-02-27T19:33:42.909Z,32.83
2019-02-27T19:36:18.924Z,34.05
2019-02-27T19:38:44.228Z,32.67
2019-02-27T19:41:14.082Z,31.80
2019-02-27T19:43:45.253Z,29.05
2019-02-27T19:46:17.363Z,29.90
2019-02-27T19:51:17.099Z,27.70
2019-02-27T19:53:45.196Z,26.05
2019-02-27T19:56:13.235Z,25.90
2019-02-27T19:58:41.214Z,25.40
2019-02-27T20:01:11.315Z,25.17
2019-02-27T20:03:39.326Z,25.08
2019-02-27T20:06:07.231Z,25.05
2019-02-27T20:08:36.239Z,23.67
2019-02-27T20:11:06.032Z,23.12
2019-02-27T20:13:34.604Z,22.75
2019-02-27T20:16:02.484Z,21.35
2019-02-27T20:18:30.472Z,20.92
2019-02-27T20:20:58.375Z,19.98
2019-02-27T20:23:26.457Z,20.23
2019-02-27T20:25:56.071Z,19.75
2019-02-27T20:28:24.226Z,22.27
2019-02-27T20:30:52.150Z,24.65
2019-02-27T20:33:22.279Z,24.72
2019-02-27T20:35:52.273Z,25.02
2019-02-27T20:38:20.716Z,24.82
2019-02-27T20:40:48.729Z,25.43
2019-02-27T20:43:16.731Z,25.50
2019-02-27T20:45:44.756Z,24.95
2019-02-27T20:48:12.636Z,24.25
2019-02-27T20:50:41.387Z,23.75
2019-02-27T20:53:09.393Z,22.75
2019-02-27T20:55:37.360Z,22.17
2019-02-27T20:58:05.435Z,22.48
2019-02-27T21:00:36.311Z,22.02
2019-02-27T21:03:03.164Z,21.45
2019-02-27T21:05:31.764Z,21.90
2019-02-27T21:08:02.081Z,19.52
2019-02-27T21:10:29.562Z,19.82
2019-02-27T21:12:57.490Z,19.17
2019-02-27T21:15:25.394Z,17.92
2019-02-27T21:17:57.741Z,17.87
2019-02-27T21:20:23.268Z,17.12
2019-02-27T21:22:51.356Z,16.45
2019-02-27T21:25:19.196Z,16.35
2019-02-27T21:27:47.130Z,15.95
2019-02-27T21:30:18.137Z,15.00
2019-02-27T21:32:45.015Z,14.23
2019-02-27T21:35:12.905Z,14.03
2019-02-27T21:37:44.622Z,13.62
2019-02-27T21:40:10.809Z,13.48
2019-02-27T21:42:38.789Z,12.68
2019-02-27T21:45:07.647Z,12.47
2019-02-27T21:47:35.524Z,12.20
2019-02-27T21:50:06.400Z,11.65
2019-02-27T21:52:34.048Z,11.35
2019-02-27T21:55:02.161Z,11.00
2019-02-27T21:57:30.044Z,10.48
2019-02-27T21:59:58.228Z,9.50
2019-02-27T22:02:27.255Z,10.13
2019-02-27T22:04:55.680Z,10.55
2019-02-27T22:07:23.579Z,9.28
2019-02-27T22:09:51.531Z,10.20
2019-02-27T22:12:19.438Z,8.88
2019-02-27T22:14:48.595Z,9.00
2019-02-27T22:17:16.768Z,8.55
2019-02-27T22:19:44.687Z,8.48
2019-02-27T22:22:12.607Z,8.20
2019-02-27T22:24:40.648Z,8.10
2019-02-27T22:27:09.184Z,7.97
2019-02-27T22:29:38.195Z,7.55
2019-02-27T22:32:06.088Z,7.80
2019-02-27T22:34:34.026Z,7.37
2019-02-27T22:37:02.072Z,7.33
2019-02-27T22:39:31.726Z,7.15
2019-02-27T22:41:59.558Z,7.05
2019-02-27T22:44:29.107Z,7.42
2019-02-27T22:46:56.964Z,7.22
2019-02-27T22:49:25.085Z,7.12
2019-02-27T22:51:52.935Z,7.87
2019-02-27T22:54:21.024Z,7.05
2019-02-27T22:56:51.383Z,7.20
2019-02-27T22:59:18.571Z,6.75
2019-02-27T23:01:51.149Z,6.90
2019-02-27T23:04:19.227Z,6.55
2019-02-27T23:06:47.955Z,6.40
2019-02-27T23:09:16.221Z,5.70
2019-02-27T23:11:46.013Z,6.60
2019-02-27T23:14:13.893Z,6.35
2019-02-27T23:16:41.752Z,6.40
2019-02-27T23:19:11.976Z,6.17
2019-02-27T23:21:39.612Z,6.50
2019-02-27T23:24:10.150Z,6.10
2019-02-27T23:26:37.095Z,6.37
2019-02-27T23:29:05.765Z,6.37
2019-02-27T23:31:34.333Z,6.28
2019-02-27T23:34:02.198Z,5.97
2019-02-27T23:36:30.094Z,6.33
2019-02-27T23:38:57.996Z,5.78
2019-02-27T23:41:26.033Z,5.78
2019-02-27T23:43:53.934Z,5.75
2019-02-27T23:46:21.839Z,5.40
2019-02-27T23:48:49.820Z,5.58
2019-02-27T23:51:17.687Z,5.65
2019-02-27T23:53:45.640Z,5.58
2019-02-27T23:56:19.297Z,6.12
2019-02-27T23:58:43.121Z,6.37
